Portada
METAR-TAF:

METAR-TAF

Aeropuertos :

Bainbridge, Georgia, Estados Unidos

latitud: 30-58N, longitud: 084-38W, altitud: 43 m

Observación

El informe se hizo hace 9 minutos, a las 19:55 UTC
Viento 6 kt del noroeste
Temperatura 13°C
Humedad 82%
Presión 1014 hPa
Visibilidad: 16.1 km
Nubes dispersas a una altura de 2100 ft
Cielo cubierto a una altura de 8000 ft

METAR: KBGE 271955Z AUTO 32006KT 10SM SCT021 OVC080 13/10 A2994 RMK AO2 T01330097

Hora: 15:04 (20:04 UTC)


TAF: falta

Observaciones y pronósticos meteorológicos de más de 4000 aeropuertos (mensajes METAR y TAF).

Los puntos amarillos y rojos representan las estaciones disponibles.

Ponga el ratón en el punto deseado para ver el nombre de la estación.

Haga clic para ver las observaciones y los pronósticos meteorológicos.

Para cambiar el mapa : haga clic en los botones verdes con una cruz de color negro para hacer un zoom, en el botón verde con un guión para alejar o en las flechas verdes para mapas adyacentes.


METAR-TAF: